createdAt,value
2022-09-07T00:02:26.166Z,99.90
2022-09-07T00:04:53.503Z,99.90
2022-09-07T00:07:20.804Z,99.90
2022-09-07T00:09:48.150Z,99.90
2022-09-07T00:12:15.407Z,99.90
2022-09-07T00:14:42.760Z,99.90
2022-09-07T00:17:10.002Z,99.90
2022-09-07T00:19:37.268Z,99.90
2022-09-07T00:22:04.535Z,99.90
2022-09-07T00:24:31.786Z,99.90
2022-09-07T00:26:59.883Z,99.90
2022-09-07T00:29:27.171Z,99.90
2022-09-07T00:31:54.528Z,99.90
2022-09-07T00:34:21.815Z,99.90
2022-09-07T00:36:49.140Z,99.90
2022-09-07T00:39:16.455Z,99.90
2022-09-07T00:41:43.750Z,99.90
2022-09-07T00:44:42.275Z,99.90
2022-09-07T00:47:24.135Z,99.90
2022-09-07T00:49:53.854Z,99.90
2022-09-07T00:52:21.147Z,99.90
2022-09-07T00:54:55.322Z,99.90
2022-09-07T00:57:22.615Z,99.90
2022-09-07T00:59:51.130Z,99.90
2022-09-07T01:02:18.486Z,99.90
2022-09-07T01:04:51.645Z,99.90
2022-09-07T01:07:19.061Z,99.90
2022-09-07T01:09:47.235Z,99.90
2022-09-07T01:12:14.598Z,99.90
2022-09-07T01:14:44.704Z,99.90
2022-09-07T01:17:46.071Z,99.90
2022-09-07T01:20:23.660Z,99.90
2022-09-07T01:23:00.099Z,99.90
2022-09-07T01:25:46.170Z,99.90
2022-09-07T01:28:16.215Z,99.90
2022-09-07T01:31:10.081Z,99.90
2022-09-07T01:34:01.670Z,99.90
2022-09-07T01:36:28.914Z,99.90
2022-09-07T01:39:00.499Z,99.90
2022-09-07T01:41:47.606Z,99.90
2022-09-07T01:44:33.127Z,99.90
2022-09-07T01:47:11.167Z,99.90
2022-09-07T01:49:40.515Z,99.90
2022-09-07T01:52:32.676Z,99.90
2022-09-07T01:55:24.509Z,99.90
2022-09-07T01:58:32.704Z,99.90
2022-09-07T02:01:07.672Z,99.90
2022-09-07T02:03:41.122Z,99.90
2022-09-07T02:06:15.360Z,99.90
2022-09-07T02:08:58.271Z,99.90
2022-09-07T02:11:40.881Z,99.90
2022-09-07T02:14:33.329Z,99.90
2022-09-07T02:17:18.404Z,99.90
2022-09-07T02:19:50.782Z,99.90
2022-09-07T02:22:21.024Z,99.90
2022-09-07T02:24:50.800Z,99.90
2022-09-07T02:27:20.434Z,99.90
2022-09-07T02:29:47.697Z,99.90
2022-09-07T02:32:14.943Z,99.90
2022-09-07T02:34:42.240Z,99.90
2022-09-07T02:37:09.602Z,99.90
2022-09-07T02:39:36.931Z,99.90
2022-09-07T02:42:04.398Z,99.90
2022-09-07T02:44:34.574Z,99.90
2022-09-07T02:47:18.291Z,99.90
2022-09-07T02:49:57.614Z,99.90
2022-09-07T02:52:55.253Z,99.90
2022-09-07T02:55:50.244Z,99.90
2022-09-07T02:58:38.797Z,99.90
2022-09-07T03:01:40.464Z,99.90
2022-09-07T03:04:12.370Z,99.90
2022-09-07T03:06:44.340Z,99.90
2022-09-07T03:09:16.611Z,99.90
2022-09-07T03:11:43.875Z,99.90
2022-09-07T03:14:17.822Z,99.90
2022-09-07T03:16:45.238Z,99.90
2022-09-07T03:19:12.537Z,99.90
2022-09-07T03:21:39.819Z,99.90
2022-09-07T03:24:07.291Z,99.90
2022-09-07T03:26:34.943Z,99.90
2022-09-07T03:29:02.195Z,99.90
2022-09-07T03:31:29.443Z,99.90
2022-09-07T03:33:56.701Z,99.90
2022-09-07T03:36:24.047Z,99.90
2022-09-07T03:38:51.306Z,99.90
2022-09-07T03:41:18.571Z,99.90
2022-09-07T03:43:45.850Z,99.90
2022-09-07T03:46:15.968Z,99.90
2022-09-07T03:48:43.258Z,99.90
2022-09-07T03:51:10.663Z,99.90
2022-09-07T03:53:39.185Z,99.90
2022-09-07T03:56:20.457Z,99.90
2022-09-07T03:58:47.962Z,99.90
2022-09-07T04:01:17.501Z,99.90
2022-09-07T04:03:45.466Z,99.90
2022-09-07T04:06:12.975Z,99.90
2022-09-07T04:08:40.409Z,99.90
2022-09-07T04:11:08.358Z,99.90
2022-09-07T04:13:37.039Z,99.90
2022-09-07T04:16:21.094Z,99.90
2022-09-07T04:18:50.258Z,99.90
2022-09-07T04:21:18.081Z,99.90
2022-09-07T04:23:45.485Z,99.90
2022-09-07T04:26:14.395Z,99.90
2022-09-07T04:28:41.684Z,99.90
2022-09-07T04:31:09.257Z,99.90
2022-09-07T04:33:36.597Z,99.90
2022-09-07T04:36:04.026Z,99.90
2022-09-07T04:38:31.390Z,99.90
2022-09-07T04:41:02.706Z,99.90
2022-09-07T04:43:30.230Z,99.90
2022-09-07T04:45:57.739Z,99.90
2022-09-07T04:48:25.127Z,99.90
2022-09-07T04:50:52.398Z,99.90
2022-09-07T04:53:19.805Z,99.90
2022-09-07T04:55:47.143Z,99.90
2022-09-07T04:58:14.430Z,99.90
2022-09-07T05:00:41.698Z,99.90
2022-09-07T05:03:09.119Z,99.90
2022-09-07T05:05:37.859Z,99.90
2022-09-07T05:08:05.242Z,99.90
2022-09-07T05:10:32.599Z,99.90
2022-09-07T05:13:00.231Z,99.90
2022-09-07T05:15:29.979Z,99.90
2022-09-07T05:17:57.838Z,99.90
2022-09-07T05:20:25.167Z,99.90
2022-09-07T05:22:59.439Z,99.90
2022-09-07T05:25:28.788Z,99.90
2022-09-07T05:27:56.035Z,99.90
2022-09-07T05:33:10.799Z,99.90
2022-09-07T05:35:38.090Z,99.90
2022-09-07T05:38:05.427Z,99.90
2022-09-07T05:40:36.116Z,99.90
2022-09-07T05:43:05.830Z,99.90
2022-09-07T05:45:33.130Z,99.90
2022-09-07T05:48:00.447Z,99.90
2022-09-07T05:50:27.770Z,99.90
2022-09-07T05:52:55.022Z,99.90
2022-09-07T05:55:30.044Z,99.90
2022-09-07T05:57:57.833Z,99.90
2022-09-07T06:00:25.087Z,99.90
2022-09-07T06:02:52.474Z,99.90
2022-09-07T06:05:19.851Z,99.90
2022-09-07T06:07:48.238Z,99.90
2022-09-07T06:13:03.502Z,99.90
2022-09-07T06:15:33.418Z,99.90
2022-09-07T06:18:00.656Z,99.90
2022-09-07T06:20:27.919Z,99.90
2022-09-07T06:22:55.191Z,99.90
2022-09-07T06:25:22.507Z,99.90
2022-09-07T06:27:49.902Z,99.90
2022-09-07T06:30:17.246Z,99.90
2022-09-07T06:32:44.953Z,99.90
2022-09-07T06:35:12.965Z,99.90
2022-09-07T06:37:40.430Z,99.90
2022-09-07T06:40:08.626Z,99.90
2022-09-07T06:42:35.983Z,99.90
2022-09-07T06:45:04.187Z,99.90
2022-09-07T06:47:31.515Z,99.90
2022-09-07T06:49:59.087Z,99.90
2022-09-07T06:52:26.493Z,99.90
2022-09-07T06:55:01.207Z,99.90
2022-09-07T06:57:28.770Z,99.90
2022-09-07T06:59:56.035Z,99.90
2022-09-07T07:02:23.336Z,99.90
2022-09-07T07:04:50.678Z,99.90
2022-09-07T07:07:17.973Z,99.90
2022-09-07T07:09:45.256Z,99.90
2022-09-07T07:12:12.530Z,99.90
2022-09-07T07:14:44.614Z,99.90
2022-09-07T07:17:12.503Z,99.90
2022-09-07T07:19:39.787Z,99.90
2022-09-07T07:24:54.326Z,99.90
2022-09-07T07:27:22.028Z,99.90
2022-09-07T07:29:49.565Z,99.90
2022-09-07T07:32:16.815Z,99.90
2022-09-07T07:34:44.025Z,99.90
2022-09-07T07:37:11.240Z,99.90
2022-09-07T07:42:25.991Z,99.90
2022-09-07T07:47:40.387Z,99.90
2022-09-07T07:55:43.245Z,99.90
2022-09-07T07:58:10.937Z,99.90
2022-09-07T08:00:53.839Z,99.90
2022-09-07T08:03:22.615Z,99.90
2022-09-07T08:05:49.847Z,99.90
2022-09-07T08:08:17.158Z,99.90
2022-09-07T08:10:45.983Z,99.90
2022-09-07T08:13:14.103Z,99.90
2022-09-07T08:15:44.487Z,99.90
2022-09-07T08:18:12.546Z,99.90
2022-09-07T08:20:40.351Z,99.90
2022-09-07T08:23:08.120Z,99.90
2022-09-07T08:25:35.494Z,99.90
2022-09-07T08:28:03.017Z,99.90
2022-09-07T08:30:30.193Z,99.90
2022-09-07T08:32:57.379Z,99.90
2022-09-07T08:35:24.580Z,99.90
2022-09-07T08:37:51.743Z,99.90
2022-09-07T08:40:19.487Z,99.90
2022-09-07T08:42:55.080Z,99.90
2022-09-07T08:45:34.094Z,99.90
2022-09-07T08:48:01.690Z,99.90
2022-09-07T08:50:47.518Z,99.90
2022-09-07T08:53:16.194Z,99.90
2022-09-07T08:55:50.863Z,99.90
2022-09-07T08:58:50.690Z,99.90
2022-09-07T09:01:37.951Z,99.90
2022-09-07T09:04:19.983Z,99.90
2022-09-07T09:06:58.386Z,99.90
2022-09-07T09:09:32.282Z,99.90
2022-09-07T09:12:32.345Z,99.90
2022-09-07T09:15:31.135Z,99.90
2022-09-07T09:18:08.188Z,99.90
2022-09-07T09:20:49.860Z,99.90
2022-09-07T09:23:18.372Z,99.90
2022-09-07T09:25:56.078Z,99.90
2022-09-07T09:28:24.676Z,99.90
2022-09-07T09:30:53.730Z,99.90
2022-09-07T09:33:22.973Z,99.90
2022-09-07T09:35:51.516Z,99.90
2022-09-07T09:38:32.389Z,99.90
2022-09-07T09:41:04.695Z,99.90
2022-09-07T09:43:39.164Z,99.90
2022-09-07T09:46:24.019Z,99.90
2022-09-07T09:48:58.396Z,99.90
2022-09-07T09:54:33.593Z,99.90
2022-09-07T09:57:00.836Z,99.90
2022-09-07T10:05:41.287Z,99.90
2022-09-07T10:08:36.995Z,99.90
2022-09-07T10:11:07.329Z,99.90
2022-09-07T10:13:43.541Z,99.90
2022-09-07T10:16:11.564Z,99.90
2022-09-07T10:18:59.946Z,99.90
2022-09-07T10:21:28.634Z,99.90
2022-09-07T10:24:04.738Z,99.90
2022-09-07T10:26:36.477Z,99.90
2022-09-07T10:29:25.535Z,99.90
2022-09-07T10:32:04.771Z,99.90
2022-09-07T10:34:56.119Z,99.90
2022-09-07T10:37:44.923Z,99.90
2022-09-07T10:40:22.112Z,99.90
2022-09-07T10:43:24.899Z,99.90
2022-09-07T10:45:57.981Z,99.90
2022-09-07T10:48:42.997Z,99.90
2022-09-07T10:51:15.495Z,99.90
2022-09-07T10:57:36.379Z,99.90
2022-09-07T11:00:17.259Z,99.90
2022-09-07T11:06:07.476Z,99.90
2022-09-07T11:14:20.861Z,99.90
2022-09-07T11:16:55.375Z,99.90
2022-09-07T11:19:42.037Z,99.90
2022-09-07T11:22:31.114Z,99.90
2022-09-07T11:25:33.762Z,99.90
2022-09-07T11:28:03.815Z,99.90
2022-09-07T11:30:37.064Z,99.90
2022-09-07T11:33:20.479Z,99.90
2022-09-07T11:35:53.254Z,99.90
2022-09-07T11:39:02.199Z,99.90
2022-09-07T11:41:33.963Z,99.90
2022-09-07T11:44:04.659Z,99.90
2022-09-07T11:46:33.186Z,99.90
2022-09-07T11:49:03.392Z,99.90
2022-09-07T11:51:41.130Z,99.90
2022-09-07T11:54:31.563Z,99.90
2022-09-07T11:57:15.164Z,99.90
2022-09-07T12:00:06.670Z,99.90
2022-09-07T12:03:06.507Z,99.90
2022-09-07T12:05:45.726Z,99.90
2022-09-07T12:08:28.738Z,99.90
2022-09-07T12:11:01.706Z,99.90
2022-09-07T12:13:52.912Z,99.90
2022-09-07T12:16:29.260Z,99.90
2022-09-07T12:19:05.635Z,99.90
2022-09-07T12:21:53.090Z,99.90
2022-09-07T12:24:33.545Z,99.90
2022-09-07T12:27:01.530Z,99.90
2022-09-07T12:29:29.495Z,99.90
2022-09-07T12:31:59.661Z,99.90
2022-09-07T12:34:31.132Z,99.90
2022-09-07T12:37:01.614Z,99.90
2022-09-07T12:39:29.513Z,99.90
2022-09-07T12:45:30.268Z,99.90
2022-09-07T12:47:58.605Z,99.90
2022-09-07T12:50:29.740Z,99.90
2022-09-07T12:53:28.772Z,99.90
2022-09-07T12:56:17.989Z,99.90
2022-09-07T12:59:04.502Z,99.90
2022-09-07T13:01:50.282Z,99.90
2022-09-07T13:04:35.659Z,99.90
2022-09-07T13:07:29.458Z,99.90
2022-09-07T13:10:00.216Z,99.90
2022-09-07T13:15:37.576Z,99.90
2022-09-07T13:18:04.985Z,99.90
2022-09-07T13:20:37.634Z,99.90
2022-09-07T13:23:08.394Z,99.90
2022-09-07T13:25:45.447Z,99.90
2022-09-07T13:28:18.396Z,99.90
2022-09-07T13:30:45.834Z,99.90
2022-09-07T13:33:25.391Z,99.90
2022-09-07T13:35:56.892Z,99.90
2022-09-07T13:38:24.115Z,99.90
2022-09-07T13:40:52.187Z,99.90
2022-09-07T13:43:20.929Z,99.90
2022-09-07T13:45:54.269Z,99.90
2022-09-07T13:48:35.450Z,99.90
2022-09-07T13:51:08.254Z,99.90
2022-09-07T13:54:16.840Z,98.50
2022-09-07T13:57:04.658Z,99.30
2022-09-07T13:59:34.066Z,99.20
2022-09-07T14:02:01.358Z,99.00
2022-09-07T14:04:37.436Z,97.60
2022-09-07T14:07:06.748Z,96.60
2022-09-07T14:09:34.207Z,97.50
2022-09-07T14:12:01.440Z,98.20
2022-09-07T14:14:33.122Z,98.00
2022-09-07T14:17:00.406Z,97.70
2022-09-07T14:20:02.995Z,97.80
2022-09-07T14:22:34.387Z,97.90
2022-09-07T14:25:03.052Z,97.90
2022-09-07T14:27:40.911Z,97.20
2022-09-07T14:30:24.206Z,97.40
2022-09-07T14:32:53.100Z,98.00
2022-09-07T14:35:25.203Z,97.60
2022-09-07T14:37:53.208Z,99.50
2022-09-07T14:40:25.414Z,98.30
2022-09-07T14:42:53.769Z,99.50
2022-09-07T14:45:23.791Z,98.70
2022-09-07T14:47:52.262Z,98.90
2022-09-07T14:51:00.886Z,98.20
2022-09-07T14:53:36.431Z,98.60
2022-09-07T14:56:09.123Z,98.60
2022-09-07T14:58:36.311Z,97.90
2022-09-07T15:04:02.598Z,98.70
2022-09-07T15:09:36.808Z,98.30
2022-09-07T15:12:29.749Z,97.90
2022-09-07T15:15:27.046Z,97.80
2022-09-07T15:17:55.485Z,98.20
2022-09-07T15:20:32.285Z,97.80
2022-09-07T15:22:59.661Z,97.70
2022-09-07T15:25:26.857Z,97.30
2022-09-07T15:27:54.544Z,97.40
2022-09-07T15:30:21.746Z,98.40
2022-09-07T15:32:49.541Z,97.70
2022-09-07T15:35:16.750Z,97.20
2022-09-07T15:40:36.339Z,99.70
2022-09-07T15:43:16.405Z,99.90
2022-09-07T15:45:47.797Z,99.90
2022-09-07T15:48:17.218Z,99.40
2022-09-07T15:50:44.482Z,99.70
2022-09-07T15:55:59.081Z,99.90
2022-09-07T15:58:26.275Z,99.90
2022-09-07T16:01:51.397Z,99.90
2022-09-07T16:03:40.729Z,99.60
2022-09-07T16:06:13.583Z,99.90
2022-09-07T16:08:41.398Z,99.90
2022-09-07T16:11:27.307Z,99.00
2022-09-07T16:14:01.750Z,99.90
2022-09-07T16:19:20.631Z,99.90
2022-09-07T16:21:49.233Z,99.90
2022-09-07T16:24:17.379Z,99.90
2022-09-07T16:26:44.813Z,99.90
2022-09-07T16:29:12.102Z,99.90
2022-09-07T16:32:43.825Z,99.90
2022-09-07T16:34:26.439Z,99.90
2022-09-07T16:36:53.622Z,99.90
2022-09-07T16:39:20.800Z,99.90
2022-09-07T16:41:48.092Z,99.90
2022-09-07T16:44:16.231Z,99.90
2022-09-07T16:46:43.479Z,99.90
2022-09-07T16:49:11.247Z,99.90
2022-09-07T16:51:39.740Z,99.90
2022-09-07T16:54:07.146Z,99.90
2022-09-07T16:56:38.829Z,99.90
2022-09-07T16:59:06.881Z,99.90
2022-09-07T17:01:35.549Z,99.90
2022-09-07T17:04:06.828Z,99.90
2022-09-07T17:06:37.894Z,99.90
2022-09-07T17:09:05.093Z,99.90
2022-09-07T17:11:34.055Z,99.90
2022-09-07T17:14:01.414Z,99.90
2022-09-07T17:16:33.031Z,99.90
2022-09-07T17:21:53.705Z,99.90
2022-09-07T17:24:21.124Z,99.90
2022-09-07T17:26:48.299Z,99.90
2022-09-07T17:29:15.621Z,99.90
2022-09-07T17:34:30.444Z,99.90
2022-09-07T17:36:57.811Z,99.90
2022-09-07T17:39:25.043Z,99.90
2022-09-07T17:41:53.279Z,99.90
2022-09-07T17:44:21.632Z,99.90
2022-09-07T17:46:48.841Z,99.90
2022-09-07T17:49:16.774Z,99.90
2022-09-07T17:51:44.662Z,99.90
2022-09-07T17:54:14.687Z,99.90
2022-09-07T17:56:42.094Z,99.90
2022-09-07T18:01:56.789Z,99.90
2022-09-07T18:04:24.237Z,99.90
2022-09-07T18:06:51.533Z,99.90
2022-09-07T18:09:19.720Z,99.90
2022-09-07T18:11:48.972Z,99.90
2022-09-07T18:14:17.039Z,99.90
2022-09-07T18:16:44.975Z,99.90
2022-09-07T18:19:12.567Z,99.90
2022-09-07T18:21:42.875Z,99.90
2022-09-07T18:24:21.898Z,99.90
2022-09-07T18:26:50.633Z,99.90
2022-09-07T18:29:31.272Z,99.90
2022-09-07T18:32:00.183Z,99.90
2022-09-07T18:34:28.697Z,99.90
2022-09-07T18:36:57.159Z,99.90
2022-09-07T18:39:25.313Z,99.90
2022-09-07T18:41:53.963Z,99.90
2022-09-07T18:47:08.763Z,99.90
2022-09-07T18:49:35.942Z,99.90
2022-09-07T18:54:51.067Z,99.90
2022-09-07T18:57:18.547Z,99.90
2022-09-07T18:59:45.732Z,99.90
2022-09-07T19:02:14.074Z,99.90
2022-09-07T19:07:30.050Z,99.90
2022-09-07T19:09:58.056Z,99.90
2022-09-07T19:12:25.266Z,99.90
2022-09-07T19:14:52.473Z,99.90
2022-09-07T19:17:19.633Z,99.90
2022-09-07T19:19:48.300Z,99.90
2022-09-07T19:22:15.461Z,99.90
2022-09-07T19:24:42.635Z,99.90
2022-09-07T19:27:09.812Z,99.90
2022-09-07T19:29:36.996Z,99.90
2022-09-07T19:32:04.415Z,99.90
2022-09-07T19:34:39.350Z,99.90
2022-09-07T19:37:06.807Z,99.90
2022-09-07T19:39:33.988Z,99.90
2022-09-07T19:42:02.137Z,99.90
2022-09-07T19:44:29.322Z,99.90
2022-09-07T19:46:56.655Z,99.90
2022-09-07T19:49:23.895Z,99.90
2022-09-07T19:51:51.926Z,99.90
2022-09-07T19:54:19.376Z,99.90
2022-09-07T19:56:46.726Z,99.90
2022-09-07T19:59:14.402Z,99.90
2022-09-07T20:01:45.945Z,99.90
2022-09-07T20:04:19.632Z,99.90
2022-09-07T20:06:49.593Z,99.90
2022-09-07T20:09:17.944Z,99.90
2022-09-07T20:11:47.331Z,99.90
2022-09-07T20:14:15.401Z,99.90
2022-09-07T20:16:42.858Z,99.90
2022-09-07T20:19:17.253Z,99.90
2022-09-07T20:21:44.531Z,99.90
2022-09-07T20:24:12.404Z,99.90
2022-09-07T20:26:39.636Z,99.90
2022-09-07T20:31:54.416Z,99.90
2022-09-07T20:34:21.723Z,99.90
2022-09-07T20:36:49.758Z,99.90
2022-09-07T20:39:17.104Z,99.90
2022-09-07T20:41:44.399Z,99.90
2022-09-07T20:44:11.676Z,99.90
2022-09-07T20:46:38.950Z,99.90
2022-09-07T20:49:06.245Z,99.90
2022-09-07T20:51:33.429Z,99.90
2022-09-07T20:54:00.594Z,99.90
2022-09-07T20:56:28.458Z,99.90
2022-09-07T20:58:57.090Z,99.90
2022-09-07T21:01:24.468Z,99.90
2022-09-07T21:03:52.997Z,99.90
2022-09-07T21:06:20.654Z,99.90
2022-09-07T21:08:48.157Z,99.90
2022-09-07T21:11:19.107Z,99.90
2022-09-07T21:13:46.700Z,99.90
2022-09-07T21:16:15.171Z,99.90
2022-09-07T21:18:43.058Z,99.90
2022-09-07T21:21:19.711Z,99.90
2022-09-07T21:23:47.730Z,99.90
2022-09-07T21:26:15.020Z,99.90
2022-09-07T21:28:42.197Z,99.90
2022-09-07T21:31:09.687Z,99.90
2022-09-07T21:33:37.588Z,99.90
2022-09-07T21:36:08.962Z,99.90
2022-09-07T21:38:36.870Z,99.90
2022-09-07T21:41:14.207Z,99.90
2022-09-07T21:43:41.766Z,99.90
2022-09-07T21:46:13.657Z,99.90
2022-09-07T21:48:40.938Z,99.90
2022-09-07T21:51:08.103Z,99.90
2022-09-07T21:53:35.339Z,99.90
2022-09-07T21:56:06.920Z,99.90
2022-09-07T21:58:34.147Z,99.90
2022-09-07T22:01:17.617Z,99.90
2022-09-07T22:03:45.794Z,99.90
2022-09-07T22:06:13.085Z,99.90
2022-09-07T22:08:40.697Z,99.90
2022-09-07T22:11:18.960Z,99.90
2022-09-07T22:13:46.135Z,99.90
2022-09-07T22:16:13.664Z,99.90
2022-09-07T22:18:44.654Z,99.90
2022-09-07T22:21:14.847Z,99.90
2022-09-07T22:23:47.635Z,99.90
2022-09-07T22:26:16.171Z,99.90
2022-09-07T22:28:43.347Z,99.90
2022-09-07T22:31:23.549Z,99.90
2022-09-07T22:33:51.348Z,99.90
2022-09-07T22:36:29.778Z,99.90
2022-09-07T22:38:58.219Z,99.90
2022-09-07T22:41:33.422Z,99.90
2022-09-07T22:44:00.851Z,99.90
2022-09-07T22:46:29.761Z,99.90
2022-09-07T22:48:57.667Z,99.90
2022-09-07T22:51:26.704Z,99.90
2022-09-07T22:53:53.988Z,99.90
2022-09-07T22:56:23.257Z,99.90
2022-09-07T22:58:52.340Z,99.90
2022-09-07T23:01:20.506Z,99.90
2022-09-07T23:03:47.784Z,99.90
2022-09-07T23:06:31.348Z,99.90
2022-09-07T23:08:59.630Z,99.90
2022-09-07T23:11:26.925Z,99.90
2022-09-07T23:13:58.783Z,99.90
2022-09-07T23:16:26.966Z,99.90
2022-09-07T23:18:57.962Z,99.90
2022-09-07T23:21:26.102Z,99.90
2022-09-07T23:23:54.503Z,99.90
2022-09-07T23:26:29.431Z,99.90
2022-09-07T23:28:58.523Z,99.90
2022-09-07T23:31:26.335Z,99.90
2022-09-07T23:33:53.584Z,99.90
2022-09-07T23:36:20.750Z,99.90
2022-09-07T23:38:48.205Z,99.90
2022-09-07T23:41:17.736Z,99.90
2022-09-07T23:43:45.133Z,99.90
2022-09-07T23:46:12.996Z,99.90
2022-09-07T23:48:40.479Z,99.90
2022-09-07T23:51:07.638Z,99.90
2022-09-07T23:53:34.960Z,99.90
2022-09-07T23:56:02.491Z,99.90
2022-09-07T23:58:29.661Z,99.90
